createdAt,value
2022-10-18T00:00:44.120Z,25.15
2022-10-18T00:03:10.744Z,29.27
2022-10-18T00:05:37.268Z,27.83
2022-10-18T00:08:03.794Z,45.70
2022-10-18T00:10:30.478Z,49.75
2022-10-18T00:12:57.065Z,76.22
2022-10-18T00:15:23.564Z,114.57
2022-10-18T00:17:50.117Z,88.85
2022-10-18T00:20:16.692Z,114.07
2022-10-18T00:22:43.208Z,86.43
2022-10-18T00:25:09.998Z,96.18
2022-10-18T00:27:36.854Z,33.67
2022-10-18T00:30:04.569Z,73.47
2022-10-18T00:32:31.257Z,61.45
2022-10-18T00:34:58.036Z,91.05
2022-10-18T00:37:24.566Z,28.00
2022-10-18T00:42:25.154Z,57.05
2022-10-18T00:44:51.719Z,48.72
2022-10-18T00:47:18.667Z,42.35
2022-10-18T00:49:54.840Z,47.80
2022-10-18T00:52:26.116Z,69.53
2022-10-18T00:54:53.159Z,33.90
2022-10-18T00:57:19.649Z,56.38
2022-10-18T00:59:46.628Z,47.28
2022-10-18T01:02:15.015Z,41.38
2022-10-18T01:04:41.578Z,98.10
2022-10-18T01:07:13.992Z,60.10
2022-10-18T01:10:20.633Z,49.90
2022-10-18T01:13:08.629Z,37.20
2022-10-18T01:15:51.222Z,55.70
2022-10-18T01:18:25.358Z,43.13
2022-10-18T01:21:07.151Z,102.40
2022-10-18T01:24:04.463Z,77.97
2022-10-18T01:27:04.877Z,47.65
2022-10-18T01:29:53.530Z,65.65
2022-10-18T01:32:26.956Z,52.60
2022-10-18T01:34:58.262Z,137.00
2022-10-18T01:37:25.155Z,132.80
2022-10-18T01:39:54.718Z,64.40
2022-10-18T01:42:21.415Z,141.20
2022-10-18T01:44:48.539Z,126.63
2022-10-18T01:47:15.422Z,110.68
2022-10-18T01:49:41.953Z,86.70
2022-10-18T01:52:14.463Z,119.85
2022-10-18T01:54:44.956Z,126.38
2022-10-18T01:57:18.341Z,52.35
2022-10-18T01:59:48.832Z,93.90
2022-10-18T02:02:22.744Z,52.22
2022-10-18T02:04:54.977Z,68.95
2022-10-18T02:07:29.514Z,73.35
2022-10-18T02:10:04.273Z,55.13
2022-10-18T02:12:32.509Z,80.72
2022-10-18T02:15:00.875Z,102.18
2022-10-18T02:17:28.849Z,62.53
2022-10-18T02:19:56.449Z,70.55
2022-10-18T02:22:26.282Z,106.05
2022-10-18T02:24:55.156Z,117.60
2022-10-18T02:27:21.848Z,94.10
2022-10-18T02:29:48.631Z,127.43
2022-10-18T02:32:25.908Z,154.27
2022-10-18T02:34:58.869Z,131.25
2022-10-18T02:37:29.554Z,164.85
2022-10-18T02:39:56.211Z,72.75
2022-10-18T02:42:22.800Z,207.40
2022-10-18T02:44:49.337Z,154.73
2022-10-18T02:47:15.837Z,166.15
2022-10-18T02:49:42.326Z,140.52
2022-10-18T02:52:08.832Z,106.82
2022-10-18T02:54:35.380Z,101.60
2022-10-18T02:57:01.894Z,110.47
2022-10-18T02:59:28.418Z,100.10
2022-10-18T03:01:54.995Z,85.65
2022-10-18T03:04:21.543Z,88.15
2022-10-18T03:06:48.169Z,42.40
2022-10-18T03:09:14.702Z,36.33
2022-10-18T03:11:41.230Z,67.80
2022-10-18T03:14:07.728Z,63.33
2022-10-18T03:16:34.247Z,37.78
2022-10-18T03:19:00.766Z,45.72
2022-10-18T03:21:27.292Z,61.58
2022-10-18T03:23:53.785Z,167.07
2022-10-18T03:26:21.480Z,133.55
2022-10-18T03:28:48.061Z,56.63
2022-10-18T03:31:14.620Z,71.32
2022-10-18T03:33:41.110Z,52.00
2022-10-18T03:36:07.721Z,61.38
2022-10-18T03:38:34.326Z,49.88
2022-10-18T03:41:00.960Z,68.60
2022-10-18T03:43:27.453Z,57.72
2022-10-18T03:45:53.986Z,70.35
2022-10-18T03:48:20.541Z,77.40
2022-10-18T03:50:47.040Z,215.68
2022-10-18T03:53:13.812Z,71.60
2022-10-18T03:55:40.471Z,68.95
2022-10-18T03:58:06.990Z,49.85
2022-10-18T04:00:33.614Z,65.05
2022-10-18T04:03:00.105Z,68.70
2022-10-18T04:05:31.191Z,40.63
2022-10-18T04:07:57.862Z,47.95
2022-10-18T04:10:24.441Z,46.20
2022-10-18T04:12:50.942Z,122.28
2022-10-18T04:15:17.576Z,62.38
2022-10-18T04:17:44.078Z,87.00
2022-10-18T04:20:11.021Z,199.45
2022-10-18T04:22:37.569Z,77.15
2022-10-18T04:25:04.536Z,34.05
2022-10-18T04:27:31.487Z,65.18
2022-10-18T04:29:58.445Z,42.05
2022-10-18T04:32:26.664Z,60.97
2022-10-18T04:34:53.163Z,57.83
2022-10-18T04:37:19.709Z,70.15
2022-10-18T04:39:51.184Z,76.10
2022-10-18T04:42:20.478Z,57.97
2022-10-18T04:44:47.208Z,76.35
2022-10-18T04:47:13.764Z,44.55
2022-10-18T04:49:40.274Z,55.75
2022-10-18T04:52:06.795Z,50.65
2022-10-18T04:54:33.356Z,53.72
2022-10-18T04:56:59.869Z,54.17
2022-10-18T04:59:26.480Z,51.75
2022-10-18T05:01:53.080Z,62.63
2022-10-18T05:04:19.702Z,54.97
2022-10-18T05:06:46.244Z,197.10
2022-10-18T05:09:12.865Z,64.15
2022-10-18T05:11:39.369Z,69.93
2022-10-18T05:14:05.904Z,50.65
2022-10-18T05:16:33.053Z,114.13
2022-10-18T05:18:59.587Z,100.03
2022-10-18T05:21:26.075Z,108.95
2022-10-18T05:23:56.141Z,137.43
2022-10-18T05:26:22.681Z,79.32
2022-10-18T05:28:50.501Z,72.93
2022-10-18T05:31:17.500Z,59.63
2022-10-18T05:33:44.190Z,62.53
2022-10-18T05:36:11.068Z,68.18
2022-10-18T05:38:45.345Z,126.63
2022-10-18T05:41:12.426Z,99.55
2022-10-18T05:43:39.673Z,162.50
2022-10-18T05:46:11.856Z,118.15
2022-10-18T05:48:42.037Z,53.50
2022-10-18T05:51:08.573Z,62.15
2022-10-18T05:53:37.427Z,63.88
2022-10-18T05:56:05.081Z,68.47
2022-10-18T05:58:31.597Z,121.35
2022-10-18T06:00:59.830Z,98.85
2022-10-18T06:03:27.617Z,84.78
2022-10-18T06:06:01.282Z,66.15
2022-10-18T06:10:54.311Z,61.92
2022-10-18T06:13:20.876Z,53.63
2022-10-18T06:15:47.540Z,227.18
2022-10-18T06:18:14.080Z,51.45
2022-10-18T06:20:40.574Z,223.98
2022-10-18T06:23:07.686Z,275.75
2022-10-18T06:25:34.201Z,262.08
2022-10-18T06:28:00.686Z,105.00
2022-10-18T06:30:27.270Z,101.93
2022-10-18T06:32:53.854Z,72.43
2022-10-18T06:35:20.369Z,122.85
2022-10-18T06:37:46.897Z,141.65
2022-10-18T06:40:13.410Z,181.48
2022-10-18T06:42:40.363Z,174.40
2022-10-18T06:45:07.473Z,120.20
2022-10-18T06:47:33.980Z,145.27
2022-10-18T06:50:00.491Z,178.13
2022-10-18T06:52:27.022Z,103.93
2022-10-18T06:54:53.833Z,141.68
2022-10-18T06:57:21.067Z,94.35
2022-10-18T06:59:47.606Z,93.03
2022-10-18T07:02:16.162Z,132.98
2022-10-18T07:04:43.045Z,92.72
2022-10-18T07:07:09.522Z,96.68
2022-10-18T07:09:36.074Z,75.40
2022-10-18T07:12:02.582Z,79.25
2022-10-18T07:14:29.358Z,58.13
2022-10-18T07:16:58.974Z,112.70
2022-10-18T07:19:25.486Z,95.35
2022-10-18T07:21:52.066Z,73.30
2022-10-18T07:24:18.618Z,89.25
2022-10-18T07:26:45.149Z,56.40
2022-10-18T07:29:12.280Z,91.20
2022-10-18T07:31:39.123Z,47.47
2022-10-18T07:34:11.026Z,47.28
2022-10-18T07:36:37.574Z,35.53
2022-10-18T07:39:04.485Z,46.30
2022-10-18T07:41:33.403Z,46.88
2022-10-18T07:44:00.713Z,45.55
2022-10-18T07:46:27.261Z,54.63
2022-10-18T07:48:54.780Z,74.47
2022-10-18T07:51:21.888Z,62.47
2022-10-18T07:53:48.570Z,59.13
2022-10-18T07:56:21.052Z,97.07
2022-10-18T07:58:51.275Z,106.50
2022-10-18T08:01:18.812Z,43.08
2022-10-18T08:03:45.386Z,107.28
2022-10-18T08:06:13.713Z,106.13
2022-10-18T08:08:40.814Z,86.03
2022-10-18T08:11:15.842Z,41.85
2022-10-18T08:13:43.368Z,63.03
2022-10-18T08:16:12.589Z,96.13
2022-10-18T08:18:39.576Z,67.53
2022-10-18T08:21:08.131Z,50.90
2022-10-18T08:23:34.773Z,39.90
2022-10-18T08:26:02.590Z,39.20
2022-10-18T08:28:29.270Z,98.28
2022-10-18T08:30:55.774Z,67.95
2022-10-18T08:33:22.388Z,51.80
2022-10-18T08:35:59.594Z,29.95
2022-10-18T08:38:26.157Z,42.45
2022-10-18T08:40:52.707Z,92.07
2022-10-18T08:43:39.080Z,76.47
2022-10-18T08:46:05.791Z,45.13
2022-10-18T08:48:36.880Z,45.00
2022-10-18T08:51:05.141Z,37.22
2022-10-18T08:53:41.072Z,51.47
2022-10-18T08:56:14.583Z,52.95
2022-10-18T08:58:44.012Z,51.85
2022-10-18T09:01:42.187Z,33.45
2022-10-18T09:04:20.340Z,36.35
2022-10-18T09:07:14.273Z,27.33
2022-10-18T09:10:08.810Z,31.77
2022-10-18T09:12:53.709Z,22.35
2022-10-18T09:15:36.913Z,24.77
2022-10-18T09:18:32.927Z,20.40
2022-10-18T09:21:01.190Z,26.48
2022-10-18T09:23:44.050Z,21.52
2022-10-18T09:26:14.945Z,20.75
2022-10-18T09:29:12.425Z,19.90
2022-10-18T09:32:01.069Z,20.02
2022-10-18T09:34:40.157Z,20.35
2022-10-18T09:37:12.622Z,21.25
2022-10-18T09:39:39.601Z,18.25
2022-10-18T09:42:19.492Z,17.20
2022-10-18T09:44:51.430Z,19.92
2022-10-18T09:47:40.369Z,25.90
2022-10-18T09:50:26.966Z,21.40
2022-10-18T09:53:17.892Z,17.98
2022-10-18T09:56:05.053Z,17.05
2022-10-18T09:58:51.321Z,21.45
2022-10-18T10:01:30.053Z,15.15
2022-10-18T10:03:56.791Z,15.68
2022-10-18T10:06:25.975Z,19.13
2022-10-18T10:09:16.845Z,12.35
2022-10-18T10:11:48.301Z,22.38
2022-10-18T10:17:07.009Z,14.80
2022-10-18T10:19:34.826Z,14.85
2022-10-18T10:22:10.862Z,16.85
2022-10-18T10:24:47.508Z,11.55
2022-10-18T10:27:26.402Z,14.35
2022-10-18T10:29:57.023Z,18.05
2022-10-18T10:34:58.177Z,14.88
2022-10-18T10:37:27.614Z,17.15
2022-10-18T10:40:19.887Z,17.90
2022-10-18T10:43:12.978Z,12.75
2022-10-18T10:46:05.085Z,18.77
2022-10-18T10:48:34.279Z,17.27
2022-10-18T10:51:07.489Z,14.40
2022-10-18T10:53:52.076Z,13.88
2022-10-18T10:56:39.055Z,11.25
2022-10-18T10:59:14.354Z,11.50
2022-10-18T11:01:41.795Z,11.90
2022-10-18T11:04:27.398Z,10.88
2022-10-18T11:07:17.374Z,10.93
2022-10-18T11:10:05.584Z,14.25
2022-10-18T11:12:39.868Z,8.68
2022-10-18T11:15:12.392Z,10.20
2022-10-18T11:18:17.332Z,13.88
2022-10-18T11:20:56.757Z,10.13
2022-10-18T11:23:30.295Z,16.45
2022-10-18T11:26:12.098Z,15.93
2022-10-18T11:28:50.767Z,10.18
2022-10-18T11:31:34.118Z,9.10
2022-10-18T11:34:28.084Z,10.77
2022-10-18T11:37:34.676Z,9.35
2022-10-18T11:40:01.486Z,7.43
2022-10-18T11:42:42.072Z,11.20
2022-10-18T11:45:27.400Z,13.68
2022-10-18T11:48:20.328Z,11.88
2022-10-18T11:50:56.906Z,12.90
2022-10-18T11:53:25.491Z,11.98
2022-10-18T11:56:18.940Z,12.02
2022-10-18T11:59:06.394Z,12.52
2022-10-18T12:02:25.188Z,15.85
2022-10-18T12:05:22.170Z,9.80
2022-10-18T12:07:49.598Z,13.88
2022-10-18T12:10:26.115Z,20.10
2022-10-18T12:13:07.393Z,13.75
2022-10-18T12:15:36.257Z,11.13
2022-10-18T12:18:10.536Z,10.55
2022-10-18T12:20:42.217Z,10.38
2022-10-18T12:23:26.410Z,13.63
2022-10-18T12:25:56.475Z,11.02
2022-10-18T12:28:41.256Z,7.90
2022-10-18T12:31:20.244Z,12.93
2022-10-18T12:33:49.796Z,8.98
2022-10-18T12:36:22.392Z,7.35
2022-10-18T12:38:55.283Z,10.10
2022-10-18T12:41:25.563Z,8.32
2022-10-18T12:43:58.863Z,9.75
2022-10-18T12:46:43.467Z,8.88
2022-10-18T12:49:11.928Z,10.23
2022-10-18T12:51:51.668Z,10.35
2022-10-18T12:54:22.735Z,8.82
2022-10-18T12:56:50.792Z,10.90
2022-10-18T12:59:17.254Z,8.85
2022-10-18T13:01:52.987Z,11.13
2022-10-18T13:04:28.876Z,15.85
2022-10-18T13:07:22.515Z,17.05
2022-10-18T13:10:33.854Z,9.45
2022-10-18T13:13:38.767Z,9.25
2022-10-18T13:16:22.396Z,9.20
2022-10-18T13:19:01.300Z,5.78
2022-10-18T13:21:46.686Z,8.07
2022-10-18T13:24:34.326Z,11.13
2022-10-18T13:27:24.325Z,11.88
2022-10-18T13:30:14.562Z,8.85
2022-10-18T13:33:00.984Z,9.15
2022-10-18T13:35:54.886Z,7.13
2022-10-18T13:41:25.185Z,6.90
2022-10-18T13:44:11.433Z,8.00
2022-10-18T13:46:38.005Z,7.78
2022-10-18T13:49:27.495Z,7.35
2022-10-18T13:52:00.425Z,9.68
2022-10-18T13:55:04.389Z,8.23
2022-10-18T13:57:53.426Z,10.00
2022-10-18T14:00:35.233Z,7.18
2022-10-18T14:03:31.654Z,11.25
2022-10-18T14:06:06.633Z,6.53
2022-10-18T14:08:58.042Z,8.00
2022-10-18T14:11:33.384Z,8.65
2022-10-18T14:14:08.003Z,6.65
2022-10-18T14:16:39.637Z,9.90
2022-10-18T14:19:25.020Z,13.32
2022-10-18T14:22:03.714Z,8.45
2022-10-18T14:24:30.803Z,8.43
2022-10-18T14:27:12.870Z,12.68
2022-10-18T14:29:40.700Z,13.73
2022-10-18T14:32:20.165Z,11.65
2022-10-18T14:34:46.816Z,11.85
2022-10-18T14:37:28.966Z,11.57
2022-10-18T14:39:55.853Z,10.80
2022-10-18T14:42:24.545Z,10.13
2022-10-18T14:44:54.263Z,12.05
2022-10-18T14:47:26.955Z,8.25
2022-10-18T14:49:54.484Z,8.15
2022-10-18T14:52:26.393Z,12.82
2022-10-18T14:54:55.329Z,14.68
2022-10-18T14:57:31.127Z,10.68
2022-10-18T14:59:59.969Z,9.40
2022-10-18T15:02:28.238Z,12.05
2022-10-18T15:05:09.948Z,14.00
2022-10-18T15:07:36.860Z,10.75
2022-10-18T15:10:04.750Z,17.95
2022-10-18T15:12:36.950Z,11.57
2022-10-18T15:15:17.334Z,12.18
2022-10-18T15:17:45.308Z,10.73
2022-10-18T15:20:26.988Z,11.43
2022-10-18T15:22:54.221Z,10.63
2022-10-18T15:25:20.634Z,10.02
2022-10-18T15:27:49.568Z,10.90
2022-10-18T15:30:27.476Z,11.27
2022-10-18T15:33:01.025Z,13.93
2022-10-18T15:38:13.937Z,10.85
2022-10-18T15:40:41.158Z,11.88
2022-10-18T15:43:22.746Z,9.05
2022-10-18T15:45:51.588Z,8.75
2022-10-18T15:48:32.501Z,12.45
2022-10-18T15:51:10.168Z,12.73
2022-10-18T15:53:53.842Z,17.40
2022-10-18T15:56:27.837Z,13.32
2022-10-18T15:58:56.948Z,11.50
2022-10-18T16:01:32.348Z,14.98
2022-10-18T16:03:59.111Z,14.93
2022-10-18T16:06:25.632Z,17.63
2022-10-18T16:08:53.196Z,22.83
2022-10-18T16:11:22.463Z,16.77
2022-10-18T16:13:49.769Z,16.85
2022-10-18T16:16:21.416Z,15.95
2022-10-18T16:18:48.030Z,17.52
2022-10-18T16:21:32.824Z,13.77
2022-10-18T16:23:59.781Z,13.90
2022-10-18T16:26:27.062Z,25.10
2022-10-18T16:28:53.972Z,14.15
2022-10-18T16:31:26.535Z,11.90
2022-10-18T16:33:54.029Z,13.15
2022-10-18T16:36:22.928Z,7.78
2022-10-18T16:38:50.061Z,11.88
2022-10-18T16:41:16.746Z,17.58
2022-10-18T16:43:44.734Z,13.95
2022-10-18T16:46:17.905Z,20.15
2022-10-18T16:48:45.386Z,8.63
2022-10-18T16:51:12.120Z,16.23
2022-10-18T16:53:38.666Z,13.27
2022-10-18T16:56:07.001Z,16.50
2022-10-18T16:58:33.662Z,18.67
2022-10-18T17:01:01.918Z,11.70
2022-10-18T17:03:30.742Z,11.60
2022-10-18T17:05:57.332Z,14.32
2022-10-18T17:08:25.779Z,13.55
2022-10-18T17:10:55.053Z,10.18
2022-10-18T17:13:22.886Z,17.52
2022-10-18T17:15:50.027Z,13.32
2022-10-18T17:18:20.214Z,13.05
2022-10-18T17:20:46.698Z,8.85
2022-10-18T17:23:13.248Z,9.13
2022-10-18T17:25:51.539Z,12.98
2022-10-18T17:28:27.757Z,9.68
2022-10-18T17:30:54.353Z,13.60
2022-10-18T17:33:20.889Z,11.27
2022-10-18T17:35:48.459Z,12.32
2022-10-18T17:38:15.785Z,10.50
2022-10-18T17:40:42.705Z,13.32
2022-10-18T17:43:10.223Z,11.88
2022-10-18T17:45:36.801Z,7.97
2022-10-18T17:48:03.453Z,17.90
2022-10-18T17:50:29.953Z,10.15
2022-10-18T17:52:57.277Z,10.52
2022-10-18T17:55:23.813Z,12.88
2022-10-18T17:57:51.437Z,8.38
2022-10-18T18:00:17.949Z,13.27
2022-10-18T18:02:44.730Z,12.75
2022-10-18T18:05:12.568Z,7.85
2022-10-18T18:07:39.063Z,10.25
2022-10-18T18:10:06.010Z,10.73
2022-10-18T18:12:32.742Z,6.53
2022-10-18T18:14:59.577Z,8.00
2022-10-18T18:17:34.136Z,13.13
2022-10-18T18:20:06.918Z,9.90
2022-10-18T18:22:34.649Z,9.00
2022-10-18T18:25:02.612Z,10.07
2022-10-18T18:27:29.154Z,9.57
2022-10-18T18:29:56.193Z,9.35
2022-10-18T18:32:22.688Z,11.43
2022-10-18T18:34:49.238Z,11.85
2022-10-18T18:37:15.821Z,12.07
2022-10-18T18:39:42.371Z,8.10
2022-10-18T18:42:08.906Z,14.20
2022-10-18T18:44:35.462Z,16.70
2022-10-18T18:47:02.012Z,17.38
2022-10-18T18:49:28.645Z,14.10
2022-10-18T18:51:55.238Z,12.10
2022-10-18T18:54:22.057Z,12.57
2022-10-18T18:56:48.626Z,10.25
2022-10-18T18:59:15.322Z,7.72
2022-10-18T19:01:42.321Z,12.07
2022-10-18T19:04:10.071Z,8.20
2022-10-18T19:06:39.069Z,8.32
2022-10-18T19:09:07.930Z,8.88
2022-10-18T19:11:37.752Z,10.40
2022-10-18T19:14:05.970Z,9.32
2022-10-18T19:16:37.623Z,10.15
2022-10-18T19:19:11.403Z,8.43
2022-10-18T19:21:40.473Z,9.13
2022-10-18T19:25:31.324Z,5.95
2022-10-18T19:27:57.845Z,8.02
2022-10-18T19:30:24.435Z,7.03
2022-10-18T19:32:58.660Z,6.38
2022-10-18T19:35:27.770Z,6.75
2022-10-18T19:37:54.277Z,8.10
2022-10-18T19:40:20.778Z,7.90
2022-10-18T19:42:47.302Z,7.35
2022-10-18T19:45:13.790Z,8.85
2022-10-18T19:47:41.189Z,8.13
2022-10-18T19:50:07.953Z,8.13
2022-10-18T19:52:34.824Z,5.47
2022-10-18T19:55:01.654Z,8.30
2022-10-18T19:57:28.762Z,8.05
2022-10-18T19:59:56.703Z,31.80
2022-10-18T20:02:23.374Z,23.70
2022-10-18T20:04:49.928Z,21.42
2022-10-18T20:07:16.442Z,15.13
2022-10-18T20:09:42.954Z,13.10
2022-10-18T20:12:11.769Z,10.93
2022-10-18T20:14:38.384Z,9.63
2022-10-18T20:17:05.776Z,10.50
2022-10-18T20:19:32.346Z,6.63
2022-10-18T20:21:58.852Z,7.30
2022-10-18T20:24:25.549Z,11.77
2022-10-18T20:29:19.973Z,7.80
2022-10-18T20:31:47.495Z,10.18
2022-10-18T20:34:14.390Z,5.97
2022-10-18T20:36:41.104Z,4.75
2022-10-18T20:39:07.817Z,14.02
2022-10-18T20:41:37.952Z,9.93
2022-10-18T20:44:10.726Z,10.32
2022-10-18T20:46:38.335Z,8.20
2022-10-18T20:49:06.887Z,11.85
2022-10-18T20:51:33.817Z,9.75
2022-10-18T20:54:01.408Z,13.88
2022-10-18T20:56:28.177Z,12.95
2022-10-18T20:58:56.292Z,12.82
2022-10-18T21:01:25.657Z,8.02
2022-10-18T21:03:54.250Z,9.43
2022-10-18T21:06:23.609Z,15.40
2022-10-18T21:08:54.862Z,14.70
2022-10-18T21:11:22.109Z,11.57
2022-10-18T21:13:55.926Z,8.63
2022-10-18T21:16:22.688Z,6.55
2022-10-18T21:18:49.276Z,7.03
2022-10-18T21:21:18.747Z,10.68
2022-10-18T21:23:46.806Z,3.78
2022-10-18T21:26:24.669Z,5.45
2022-10-18T21:28:56.584Z,9.30
2022-10-18T21:31:25.564Z,5.75
2022-10-18T21:33:54.086Z,4.82
2022-10-18T21:36:20.749Z,10.40
2022-10-18T21:38:47.246Z,14.00
2022-10-18T21:41:15.915Z,13.77
2022-10-18T21:43:44.763Z,16.00
2022-10-18T21:46:11.962Z,4.90
2022-10-18T21:48:39.096Z,7.65
2022-10-18T21:51:07.133Z,14.48
2022-10-18T21:53:33.946Z,8.93
2022-10-18T21:56:08.196Z,18.15
2022-10-18T21:58:38.201Z,8.77
2022-10-18T22:01:12.268Z,8.95
2022-10-18T22:03:38.898Z,11.43
2022-10-18T22:06:08.797Z,12.88
2022-10-18T22:08:35.958Z,13.30
2022-10-18T22:11:03.069Z,8.25
2022-10-18T22:13:29.583Z,6.65
2022-10-18T22:15:56.180Z,5.63
2022-10-18T22:18:22.751Z,6.60
2022-10-18T22:20:56.440Z,7.97
2022-10-18T22:25:49.970Z,5.20
2022-10-18T22:28:16.717Z,7.43
2022-10-18T22:30:43.220Z,9.35
2022-10-18T22:33:09.726Z,6.70
2022-10-18T22:35:36.228Z,10.57
2022-10-18T22:38:02.854Z,7.22
2022-10-18T22:40:29.425Z,10.38
2022-10-18T22:42:55.911Z,8.63
2022-10-18T22:45:22.419Z,10.55
2022-10-18T22:47:48.929Z,8.32
2022-10-18T22:50:15.477Z,6.28
2022-10-18T22:52:42.014Z,11.10
2022-10-18T22:55:08.630Z,7.78
2022-10-18T22:57:35.127Z,13.00
2022-10-18T23:00:01.626Z,11.32
2022-10-18T23:02:28.162Z,12.63
2022-10-18T23:04:54.657Z,13.45
2022-10-18T23:07:21.204Z,11.82
2022-10-18T23:09:47.752Z,7.15
2022-10-18T23:12:14.330Z,13.07
2022-10-18T23:14:40.853Z,13.07
2022-10-18T23:17:07.438Z,13.48
2022-10-18T23:19:33.987Z,13.55
2022-10-18T23:22:00.561Z,13.02
2022-10-18T23:24:27.118Z,13.07
2022-10-18T23:26:53.610Z,12.43
2022-10-18T23:29:20.219Z,11.15
2022-10-18T23:31:46.700Z,10.38
2022-10-18T23:34:13.274Z,8.20
2022-10-18T23:36:39.827Z,8.13
2022-10-18T23:39:06.575Z,10.70
2022-10-18T23:41:33.275Z,12.00
2022-10-18T23:43:59.801Z,16.08
2022-10-18T23:46:26.329Z,13.73
2022-10-18T23:48:52.866Z,14.93
2022-10-18T23:51:19.387Z,15.60
2022-10-18T23:53:46.265Z,13.80
2022-10-18T23:56:15.217Z,14.93
2022-10-18T23:58:42.459Z,11.30
